createdAt,value
2017-11-21T00:00:41.050Z,1.50
2017-11-21T00:03:07.744Z,1.87
2017-11-21T00:05:34.521Z,1.60
2017-11-21T00:08:01.158Z,1.50
2017-11-21T00:10:27.819Z,1.40
2017-11-21T00:12:54.469Z,1.50
2017-11-21T00:15:21.122Z,1.57
2017-11-21T00:17:47.777Z,1.57
2017-11-21T00:20:14.553Z,1.47
2017-11-21T00:22:41.501Z,1.53
2017-11-21T00:25:08.422Z,1.60
2017-11-21T00:27:35.193Z,1.50
2017-11-21T00:30:01.902Z,1.40
2017-11-21T00:32:28.636Z,1.40
2017-11-21T00:34:55.273Z,1.40
2017-11-21T00:37:22.020Z,1.50
2017-11-21T00:39:48.653Z,1.50
2017-11-21T00:42:15.518Z,1.50
2017-11-21T00:44:42.161Z,1.40
2017-11-21T00:47:09.542Z,1.50
2017-11-21T00:49:36.305Z,1.40
2017-11-21T00:52:02.938Z,1.40
2017-11-21T00:54:29.703Z,1.57
2017-11-21T00:56:56.355Z,1.50
2017-11-21T00:59:23.006Z,1.90
2017-11-21T01:01:49.637Z,1.70
2017-11-21T01:04:16.290Z,1.70
2017-11-21T01:06:43.038Z,1.60
2017-11-21T01:09:09.947Z,1.50
2017-11-21T01:11:37.620Z,1.60
2017-11-21T01:14:04.637Z,1.53
2017-11-21T01:16:31.276Z,1.67
2017-11-21T01:18:58.161Z,1.50
2017-11-21T01:21:24.800Z,1.30
2017-11-21T01:23:51.436Z,1.67
2017-11-21T01:26:18.107Z,1.40
2017-11-21T01:28:44.744Z,1.50
2017-11-21T01:31:11.461Z,1.80
2017-11-21T01:33:38.742Z,1.50
2017-11-21T01:36:05.526Z,1.60
2017-11-21T01:38:32.169Z,1.20
2017-11-21T01:40:59.026Z,1.40
2017-11-21T01:43:25.690Z,1.30
2017-11-21T01:45:52.325Z,1.40
2017-11-21T01:48:18.978Z,1.30
2017-11-21T01:50:45.731Z,1.43
2017-11-21T01:53:12.701Z,1.33
2017-11-21T01:55:39.600Z,1.50
2017-11-21T01:58:06.846Z,1.50
2017-11-21T02:00:33.891Z,1.47
2017-11-21T02:03:04.486Z,1.80
2017-11-21T02:05:31.318Z,1.50
2017-11-21T02:07:57.999Z,1.40
2017-11-21T02:10:24.645Z,1.73
2017-11-21T02:12:51.341Z,1.37
2017-11-21T02:15:18.093Z,1.50
2017-11-21T02:17:45.853Z,1.53
2017-11-21T02:20:12.603Z,1.30
2017-11-21T02:22:39.679Z,1.37
2017-11-21T02:25:06.531Z,1.60
2017-11-21T02:27:33.470Z,1.60
2017-11-21T02:30:00.151Z,1.43
2017-11-21T02:32:26.797Z,1.50
2017-11-21T02:34:53.551Z,1.23
2017-11-21T02:37:20.182Z,1.60
2017-11-21T02:39:46.889Z,1.50
2017-11-21T02:42:13.804Z,1.40
2017-11-21T02:44:41.293Z,1.43
2017-11-21T02:47:08.272Z,1.40
2017-11-21T02:49:34.976Z,1.30
2017-11-21T02:52:01.732Z,1.20
2017-11-21T02:54:28.370Z,1.60
2017-11-21T02:56:55.028Z,1.30
2017-11-21T02:59:21.706Z,1.43
2017-11-21T03:01:48.357Z,1.30
2017-11-21T03:04:15.297Z,1.60
2017-11-21T03:06:42.146Z,1.20
2017-11-21T03:09:09.866Z,1.40
2017-11-21T03:11:36.544Z,1.50
2017-11-21T03:14:03.335Z,1.50
2017-11-21T03:16:30.025Z,1.50
2017-11-21T03:18:56.698Z,1.20
2017-11-21T03:21:29.374Z,1.53
2017-11-21T03:24:01.929Z,1.30
2017-11-21T03:26:29.009Z,1.37
2017-11-21T03:28:55.745Z,1.33
2017-11-21T03:31:22.398Z,1.60
2017-11-21T03:33:49.049Z,1.70
2017-11-21T03:36:15.683Z,1.77
2017-11-21T03:38:42.338Z,1.33
2017-11-21T03:41:08.994Z,1.40
2017-11-21T03:43:35.759Z,1.43
2017-11-21T03:46:03.246Z,1.20
2017-11-21T03:48:29.981Z,1.73
2017-11-21T03:50:57.017Z,1.37
2017-11-21T03:53:23.699Z,1.20
2017-11-21T03:55:50.440Z,1.40
2017-11-21T03:58:17.086Z,1.30
2017-11-21T04:00:43.802Z,1.50
2017-11-21T04:03:10.586Z,1.40
2017-11-21T04:05:37.890Z,1.30
2017-11-21T04:08:04.631Z,1.27
2017-11-21T04:10:31.404Z,1.43
2017-11-21T04:12:58.043Z,1.30
2017-11-21T04:15:25.200Z,1.40
2017-11-21T04:17:51.858Z,1.27
2017-11-21T04:20:18.693Z,1.57
2017-11-21T04:22:45.327Z,1.47
2017-11-21T04:25:11.958Z,1.50
2017-11-21T04:27:38.739Z,1.40
2017-11-21T04:30:06.006Z,1.73
2017-11-21T04:32:33.220Z,1.50
2017-11-21T04:34:59.859Z,1.43
2017-11-21T04:37:26.574Z,1.20
2017-11-21T04:39:53.422Z,1.63
2017-11-21T04:42:20.069Z,1.90
2017-11-21T04:44:46.832Z,1.30
2017-11-21T04:47:13.586Z,1.67
2017-11-21T04:49:40.218Z,1.40
2017-11-21T04:52:07.056Z,1.20
2017-11-21T04:54:34.679Z,1.47
2017-11-21T04:57:01.322Z,1.60
2017-11-21T04:59:28.500Z,1.23
2017-11-21T05:01:55.169Z,1.30
2017-11-21T05:04:21.884Z,1.50
2017-11-21T05:06:48.541Z,1.23
2017-11-21T05:09:15.186Z,1.37
2017-11-21T05:11:41.850Z,1.63
2017-11-21T05:14:08.716Z,1.33
2017-11-21T05:16:35.606Z,1.40
2017-11-21T05:19:02.498Z,1.73
2017-11-21T05:21:29.273Z,1.20
2017-11-21T05:23:56.028Z,1.60
2017-11-21T05:26:22.662Z,1.23
2017-11-21T05:28:49.294Z,1.50
2017-11-21T05:31:15.965Z,1.10
2017-11-21T05:33:42.622Z,1.50
2017-11-21T05:36:09.369Z,1.40
2017-11-21T05:38:36.675Z,1.20
2017-11-21T05:41:03.612Z,1.30
2017-11-21T05:43:30.264Z,1.60
2017-11-21T05:45:56.993Z,1.30
2017-11-21T05:48:23.750Z,1.60
2017-11-21T05:50:50.423Z,1.60
2017-11-21T05:53:17.075Z,1.30
2017-11-21T05:55:43.809Z,1.50
2017-11-21T05:58:10.682Z,1.60
2017-11-21T06:00:37.763Z,1.23
2017-11-21T06:03:04.598Z,1.70
2017-11-21T06:05:31.234Z,1.60
2017-11-21T06:07:57.886Z,1.53
2017-11-21T06:10:24.814Z,1.50
2017-11-21T06:12:51.693Z,1.40
2017-11-21T06:15:18.325Z,1.40
2017-11-21T06:17:44.976Z,1.50
2017-11-21T06:20:11.605Z,1.43
2017-11-21T06:22:38.347Z,1.70
2017-11-21T06:25:05.246Z,1.50
2017-11-21T06:27:31.922Z,1.50
2017-11-21T06:29:58.553Z,1.50
2017-11-21T06:32:25.200Z,1.50
2017-11-21T06:34:51.876Z,1.43
2017-11-21T06:37:18.581Z,1.40
2017-11-21T06:39:45.246Z,1.20
2017-11-21T06:42:11.888Z,1.20
2017-11-21T06:44:38.890Z,1.20
2017-11-21T06:47:05.753Z,1.43
2017-11-21T06:49:32.485Z,1.43
2017-11-21T06:51:59.412Z,1.50
2017-11-21T06:54:26.203Z,1.37
2017-11-21T06:56:52.842Z,1.33
2017-11-21T06:59:19.504Z,1.50
2017-11-21T07:01:46.250Z,1.57
2017-11-21T07:04:12.886Z,1.60
2017-11-21T07:06:39.681Z,1.37
2017-11-21T07:09:06.365Z,1.50
2017-11-21T07:11:33.033Z,2.10
2017-11-21T07:13:59.664Z,1.50
2017-11-21T07:16:26.329Z,1.60
2017-11-21T07:18:52.969Z,1.30
2017-11-21T07:21:19.667Z,1.53
2017-11-21T07:23:46.313Z,1.83
2017-11-21T07:26:12.973Z,1.60
2017-11-21T07:28:39.709Z,1.40
2017-11-21T07:31:07.171Z,1.30
2017-11-21T07:33:34.068Z,1.50
2017-11-21T07:36:00.706Z,1.87
2017-11-21T07:38:27.353Z,2.13
2017-11-21T07:40:53.982Z,1.73
2017-11-21T07:43:20.624Z,1.60
2017-11-21T07:45:47.259Z,2.00
2017-11-21T07:48:13.921Z,1.43
2017-11-21T07:50:40.561Z,1.60
2017-11-21T07:53:07.245Z,1.87
2017-11-21T07:55:33.906Z,1.93
2017-11-21T07:58:00.536Z,1.93
2017-11-21T08:00:27.201Z,2.83
2017-11-21T08:02:53.859Z,2.07
2017-11-21T08:05:20.518Z,4.10
2017-11-21T08:07:47.161Z,3.60
2017-11-21T08:10:13.808Z,6.07
2017-11-21T08:12:40.443Z,5.57
2017-11-21T08:15:07.114Z,3.53
2017-11-21T08:17:33.766Z,2.53
2017-11-21T08:20:00.426Z,3.07
2017-11-21T08:22:27.073Z,5.03
2017-11-21T08:24:53.825Z,5.27
2017-11-21T08:27:20.470Z,4.20
2017-11-21T08:29:47.107Z,4.57
2017-11-21T08:32:13.897Z,4.60
2017-11-21T08:34:40.538Z,4.93
2017-11-21T08:37:07.277Z,4.50
2017-11-21T08:39:33.909Z,5.03
2017-11-21T08:42:00.581Z,4.53
2017-11-21T08:44:27.238Z,4.17
2017-11-21T08:46:53.897Z,5.07
2017-11-21T08:49:20.525Z,4.20
2017-11-21T08:51:47.282Z,4.13
2017-11-21T08:54:13.929Z,4.47
2017-11-21T08:56:40.586Z,4.27
2017-11-21T08:59:07.228Z,4.03
2017-11-21T09:01:33.900Z,4.20
2017-11-21T09:04:00.545Z,4.03
2017-11-21T09:06:27.206Z,5.33
2017-11-21T09:08:53.837Z,4.03
2017-11-21T09:11:20.474Z,4.23
2017-11-21T09:13:47.130Z,3.87
2017-11-21T09:16:13.815Z,4.30
2017-11-21T09:18:40.654Z,4.40
2017-11-21T09:21:07.305Z,4.40
2017-11-21T09:23:34.061Z,3.80
2017-11-21T09:26:00.702Z,4.07
2017-11-21T09:28:27.463Z,3.83
2017-11-21T09:30:54.093Z,3.70
2017-11-21T09:33:20.740Z,3.90
2017-11-21T09:35:47.382Z,3.73
2017-11-21T09:38:14.052Z,3.57
2017-11-21T09:40:40.689Z,3.50
2017-11-21T09:43:07.379Z,3.93
2017-11-21T09:45:34.031Z,3.80
2017-11-21T09:48:00.662Z,4.20
2017-11-21T09:50:27.309Z,3.47
2017-11-21T09:52:53.976Z,3.63
2017-11-21T09:55:20.762Z,3.53
2017-11-21T09:57:47.397Z,3.20
2017-11-21T10:00:14.071Z,3.60
2017-11-21T10:02:40.781Z,3.50
2017-11-21T10:05:07.437Z,3.70
2017-11-21T10:07:34.085Z,4.70
2017-11-21T10:10:00.718Z,3.47
2017-11-21T10:12:27.389Z,4.33
2017-11-21T10:14:54.022Z,2.90
2017-11-21T10:17:20.689Z,3.33
2017-11-21T10:19:47.325Z,3.90
2017-11-21T10:22:14.001Z,3.60
2017-11-21T10:24:40.638Z,4.40
2017-11-21T10:27:07.298Z,3.77
2017-11-21T10:29:34.045Z,3.87
2017-11-21T10:32:00.674Z,4.10
2017-11-21T10:34:27.325Z,3.67
2017-11-21T10:36:54.002Z,3.87
2017-11-21T10:39:20.655Z,3.30
2017-11-21T10:41:47.290Z,3.10
2017-11-21T10:44:13.947Z,3.97
2017-11-21T10:46:40.605Z,3.83
2017-11-21T10:49:07.258Z,3.83
2017-11-21T10:51:33.886Z,4.13
2017-11-21T10:54:00.517Z,3.10
2017-11-21T10:56:27.169Z,3.50
2017-11-21T10:58:53.798Z,3.20
2017-11-21T11:01:20.449Z,4.40
2017-11-21T11:03:47.081Z,3.80
2017-11-21T11:06:13.733Z,4.00
2017-11-21T11:08:40.364Z,3.17
2017-11-21T11:11:07.123Z,2.87
2017-11-21T11:13:33.753Z,3.70
2017-11-21T11:16:00.526Z,3.90
2017-11-21T11:18:27.158Z,2.97
2017-11-21T11:20:53.826Z,3.53
2017-11-21T11:23:20.580Z,3.40
2017-11-21T11:25:47.213Z,3.47
2017-11-21T11:28:13.877Z,3.13
2017-11-21T11:30:40.633Z,3.10
2017-11-21T11:33:07.334Z,3.37
2017-11-21T11:35:34.060Z,3.33
2017-11-21T11:38:00.710Z,2.90
2017-11-21T11:40:27.341Z,3.03
2017-11-21T11:42:53.994Z,3.13
2017-11-21T11:45:20.625Z,3.43
2017-11-21T11:47:47.307Z,3.77
2017-11-21T11:50:14.053Z,3.33
2017-11-21T11:52:40.681Z,3.10
2017-11-21T11:55:07.363Z,3.20
2017-11-21T11:57:34.014Z,3.77
2017-11-21T12:00:00.761Z,3.17
2017-11-21T12:02:27.409Z,3.33
2017-11-21T12:04:54.057Z,3.67
2017-11-21T12:07:20.689Z,3.90
2017-11-21T12:09:47.338Z,3.50
2017-11-21T12:12:14.017Z,2.90
2017-11-21T12:14:40.774Z,3.57
2017-11-21T12:17:07.429Z,3.70
2017-11-21T12:19:34.065Z,3.40
2017-11-21T12:22:00.742Z,3.40
2017-11-21T12:24:27.372Z,3.07
2017-11-21T12:26:54.016Z,3.60
2017-11-21T12:29:20.653Z,3.63
2017-11-21T12:31:47.331Z,3.03
2017-11-21T12:34:13.978Z,3.30
2017-11-21T12:36:40.629Z,3.10
2017-11-21T12:39:07.261Z,3.47
2017-11-21T12:41:33.929Z,3.17
2017-11-21T12:44:00.580Z,3.03
2017-11-21T12:46:27.233Z,3.23
2017-11-21T12:48:53.885Z,3.17
2017-11-21T12:51:20.633Z,2.90
2017-11-21T12:53:47.261Z,3.60
2017-11-21T12:56:13.904Z,2.80
2017-11-21T12:58:40.593Z,3.00
2017-11-21T13:01:07.245Z,3.10
2017-11-21T13:03:34.118Z,2.93
2017-11-21T13:06:00.770Z,3.00
2017-11-21T13:08:27.407Z,3.03
2017-11-21T13:10:54.152Z,3.87
2017-11-21T13:13:20.784Z,3.23
2017-11-21T13:15:47.434Z,3.17
2017-11-21T13:18:14.065Z,2.77
2017-11-21T13:20:40.695Z,2.67
2017-11-21T13:23:07.413Z,3.57
2017-11-21T13:25:34.052Z,3.10
2017-11-21T13:28:00.708Z,3.40
2017-11-21T13:30:27.337Z,3.00
2017-11-21T13:32:54.017Z,3.00
2017-11-21T13:35:20.665Z,3.60
2017-11-21T13:37:47.310Z,3.07
2017-11-21T13:40:13.953Z,3.77
2017-11-21T13:42:40.602Z,3.60
2017-11-21T13:45:07.261Z,3.50
2017-11-21T13:47:33.941Z,2.60
2017-11-21T13:50:00.569Z,3.10
2017-11-21T13:52:27.343Z,2.40
2017-11-21T13:54:53.968Z,3.00
2017-11-21T13:57:20.622Z,2.60
2017-11-21T13:59:47.373Z,2.73
2017-11-21T14:02:14.026Z,3.20
2017-11-21T14:04:40.674Z,2.97
2017-11-21T14:07:07.313Z,3.20
2017-11-21T14:09:33.970Z,2.43
2017-11-21T14:12:00.628Z,2.90
2017-11-21T14:14:27.273Z,3.30
2017-11-21T14:16:53.901Z,2.70
2017-11-21T14:19:20.586Z,2.97
2017-11-21T14:21:47.236Z,3.30
2017-11-21T14:24:13.986Z,2.93
2017-11-21T14:26:40.617Z,2.67
2017-11-21T14:29:07.273Z,2.67
2017-11-21T14:31:33.919Z,3.20
2017-11-21T14:34:00.553Z,3.30
2017-11-21T14:36:27.201Z,3.20
2017-11-21T14:38:53.837Z,2.50
2017-11-21T14:41:20.493Z,3.13
2017-11-21T14:43:47.121Z,2.60
2017-11-21T14:46:13.774Z,3.07
2017-11-21T14:48:40.494Z,2.67
2017-11-21T14:51:07.141Z,3.40
2017-11-21T14:53:33.897Z,2.97
2017-11-21T14:56:00.548Z,3.07
2017-11-21T14:58:27.177Z,2.90
2017-11-21T15:00:53.841Z,3.27
2017-11-21T15:03:20.502Z,3.10
2017-11-21T15:05:47.133Z,2.87
2017-11-21T15:08:13.782Z,3.20
2017-11-21T15:10:40.413Z,2.70
2017-11-21T15:13:07.060Z,2.83
2017-11-21T15:15:33.723Z,3.17
2017-11-21T15:18:00.397Z,2.60
2017-11-21T15:20:27.057Z,2.80
2017-11-21T15:22:53.713Z,3.00
2017-11-21T15:25:20.354Z,2.77
2017-11-21T15:27:47.014Z,3.00
2017-11-21T15:30:13.645Z,3.27
2017-11-21T15:32:40.334Z,2.70
2017-11-21T15:35:07.001Z,2.80
2017-11-21T15:37:33.713Z,2.77
2017-11-21T15:40:00.361Z,2.63
2017-11-21T15:42:26.995Z,2.53
2017-11-21T15:44:54.934Z,2.80
2017-11-21T15:47:21.645Z,2.60
2017-11-21T15:49:48.400Z,2.67
2017-11-21T15:52:15.052Z,2.60
2017-11-21T15:54:41.722Z,3.17
2017-11-21T15:57:08.368Z,2.53
2017-11-21T15:59:35.264Z,2.70
2017-11-21T16:02:01.908Z,2.77
2017-11-21T16:04:28.618Z,2.90
2017-11-21T16:06:55.279Z,2.90
2017-11-21T16:09:21.918Z,2.40
2017-11-21T16:11:48.576Z,2.43
2017-11-21T16:14:15.205Z,3.37
2017-11-21T16:16:41.872Z,2.50
2017-11-21T16:19:08.613Z,3.10
2017-11-21T16:21:35.514Z,3.00
2017-11-21T16:24:02.237Z,2.87
2017-11-21T16:26:28.902Z,2.60
2017-11-21T16:28:55.665Z,2.67
2017-11-21T16:31:22.326Z,2.43
2017-11-21T16:33:48.962Z,2.47
2017-11-21T16:36:15.673Z,2.83
2017-11-21T16:38:43.025Z,2.53
2017-11-21T16:41:09.657Z,2.80
2017-11-21T16:43:36.329Z,2.63
2017-11-21T16:46:02.961Z,2.90
2017-11-21T16:48:29.610Z,2.37
2017-11-21T16:50:56.241Z,2.70
2017-11-21T16:53:22.973Z,2.70
2017-11-21T16:55:49.606Z,2.60
2017-11-21T16:58:16.438Z,2.60
2017-11-21T17:00:43.122Z,2.70
2017-11-21T17:03:09.781Z,2.30
2017-11-21T17:05:36.549Z,2.50
2017-11-21T17:08:03.293Z,2.50
2017-11-21T17:10:29.941Z,2.40
2017-11-21T17:12:56.569Z,2.73
2017-11-21T17:15:23.217Z,2.43
2017-11-21T17:17:49.845Z,2.47
2017-11-21T17:20:16.536Z,2.40
2017-11-21T17:22:43.270Z,2.10
2017-11-21T17:25:09.924Z,2.80
2017-11-21T17:27:36.597Z,3.10
2017-11-21T17:30:03.233Z,2.33
2017-11-21T17:32:29.893Z,2.30
2017-11-21T17:34:56.533Z,2.70
2017-11-21T17:37:23.185Z,2.60
2017-11-21T17:39:49.817Z,2.23
2017-11-21T17:42:16.858Z,2.60
2017-11-21T17:44:43.681Z,2.83
2017-11-21T17:47:10.313Z,2.90
2017-11-21T17:49:37.166Z,3.37
2017-11-21T17:52:03.807Z,2.80
2017-11-21T17:54:30.468Z,2.70
2017-11-21T17:56:57.120Z,2.90
2017-11-21T17:59:23.873Z,2.63
2017-11-21T18:01:50.514Z,2.50
2017-11-21T18:04:17.217Z,2.27
2017-11-21T18:06:43.876Z,2.63
2017-11-21T18:09:10.544Z,2.70
2017-11-21T18:11:37.233Z,2.27
2017-11-21T18:14:04.102Z,2.50
2017-11-21T18:16:30.840Z,2.20
2017-11-21T18:18:57.493Z,2.87
2017-11-21T18:21:24.145Z,2.50
2017-11-21T18:23:50.796Z,2.70
2017-11-21T18:26:17.446Z,2.67
2017-11-21T18:28:44.262Z,2.43
2017-11-21T18:31:11.010Z,2.40
2017-11-21T18:33:37.671Z,2.13
2017-11-21T18:36:04.397Z,2.47
2017-11-21T18:38:31.054Z,2.30
2017-11-21T18:40:57.685Z,2.27
2017-11-21T18:43:24.333Z,2.60
2017-11-21T18:45:50.973Z,2.40
2017-11-21T18:48:17.849Z,2.27
2017-11-21T18:50:44.508Z,3.30
2017-11-21T18:53:11.168Z,2.40
2017-11-21T18:55:37.801Z,2.23
2017-11-21T18:58:04.445Z,2.60
2017-11-21T19:00:31.169Z,2.50
2017-11-21T19:02:57.821Z,2.63
2017-11-21T19:05:24.468Z,2.30
2017-11-21T19:07:51.101Z,2.50
2017-11-21T19:10:17.784Z,2.40
2017-11-21T19:12:44.599Z,2.90
2017-11-21T19:15:11.277Z,2.50
2017-11-21T19:17:37.910Z,2.20
2017-11-21T19:20:04.670Z,2.50
2017-11-21T19:22:31.333Z,2.23
2017-11-21T19:24:58.085Z,2.60
2017-11-21T19:27:24.717Z,2.73
2017-11-21T19:29:51.389Z,2.30
2017-11-21T19:32:18.258Z,2.20
2017-11-21T19:34:45.346Z,2.40
2017-11-21T19:37:12.018Z,2.57
2017-11-21T19:39:38.718Z,2.40
2017-11-21T19:42:05.370Z,2.37
2017-11-21T19:44:32.005Z,2.50
2017-11-21T19:46:58.669Z,2.40
2017-11-21T19:49:25.296Z,2.20
2017-11-21T19:51:51.937Z,2.07
2017-11-21T19:54:18.681Z,2.37
2017-11-21T19:56:45.526Z,2.43
2017-11-21T19:59:12.221Z,2.50
2017-11-21T20:01:39.045Z,2.13
2017-11-21T20:04:05.701Z,2.60
2017-11-21T20:06:32.679Z,2.20
2017-11-21T20:08:59.346Z,2.17
2017-11-21T20:11:25.979Z,2.40
2017-11-21T20:13:52.642Z,2.83
2017-11-21T20:16:19.293Z,2.30
2017-11-21T20:18:46.012Z,2.33
2017-11-21T20:21:12.716Z,2.77
2017-11-21T20:23:39.445Z,2.60
2017-11-21T20:26:06.130Z,3.00
2017-11-21T20:28:32.774Z,2.20
2017-11-21T20:30:59.426Z,2.97
2017-11-21T20:33:26.153Z,2.50
2017-11-21T20:35:52.790Z,2.37
2017-11-21T20:38:19.574Z,1.97
2017-11-21T20:40:46.231Z,2.50
2017-11-21T20:43:13.403Z,2.57
2017-11-21T20:45:40.121Z,2.70
2017-11-21T20:48:06.837Z,2.40
2017-11-21T20:50:33.485Z,2.47
2017-11-21T20:53:00.280Z,2.80
2017-11-21T20:55:26.909Z,2.93
2017-11-21T20:57:53.585Z,2.60
2017-11-21T21:00:20.455Z,2.40
2017-11-21T21:02:47.129Z,2.30
2017-11-21T21:05:13.959Z,2.40
2017-11-21T21:07:40.634Z,2.60
2017-11-21T21:10:07.350Z,2.80
2017-11-21T21:12:34.074Z,2.90
2017-11-21T21:15:00.747Z,2.60
2017-11-21T21:17:27.389Z,2.70
2017-11-21T21:19:54.043Z,3.10
2017-11-21T21:22:20.676Z,2.47
2017-11-21T21:24:47.378Z,2.90
2017-11-21T21:27:20.049Z,2.60
2017-11-21T21:29:47.346Z,2.67
2017-11-21T21:32:14.021Z,2.73
2017-11-21T21:34:40.659Z,2.50
2017-11-21T21:37:07.313Z,2.90
2017-11-21T21:39:33.961Z,2.80
2017-11-21T21:42:00.615Z,2.53
2017-11-21T21:44:27.326Z,2.30
2017-11-21T21:46:53.973Z,3.00
2017-11-21T21:49:20.605Z,2.47
2017-11-21T21:51:47.601Z,2.40
2017-11-21T21:54:14.353Z,2.30
2017-11-21T21:56:41.008Z,2.40
2017-11-21T21:59:07.638Z,2.67
2017-11-21T22:01:34.326Z,2.40
2017-11-21T22:04:01.040Z,2.37
2017-11-21T22:06:27.681Z,2.40
2017-11-21T22:08:54.331Z,2.50
2017-11-21T22:11:20.962Z,2.87
2017-11-21T22:13:47.652Z,2.47
2017-11-21T22:16:14.390Z,2.50
2017-11-21T22:18:41.100Z,2.63
2017-11-21T22:21:07.800Z,3.17
2017-11-21T22:23:34.453Z,2.40
2017-11-21T22:26:01.109Z,2.40
2017-11-21T22:28:27.766Z,2.63
2017-11-21T22:30:54.396Z,2.70
2017-11-21T22:33:21.049Z,2.70
2017-11-21T22:35:47.729Z,2.10
2017-11-21T22:38:14.447Z,2.23
2017-11-21T22:40:41.098Z,2.10
2017-11-21T22:43:07.768Z,2.53
2017-11-21T22:45:34.417Z,2.07
2017-11-21T22:48:01.043Z,2.70
2017-11-21T22:50:27.719Z,2.73
2017-11-21T22:52:54.349Z,2.47
2017-11-21T22:55:20.997Z,2.50
2017-11-21T22:57:47.641Z,2.73
2017-11-21T23:00:14.530Z,2.77
2017-11-21T23:02:41.169Z,2.27
2017-11-21T23:05:07.921Z,2.83
2017-11-21T23:07:34.654Z,2.20
2017-11-21T23:10:01.549Z,2.30
2017-11-21T23:12:28.196Z,2.70
2017-11-21T23:14:54.838Z,2.73
2017-11-21T23:17:21.488Z,3.13
2017-11-21T23:19:48.172Z,2.50
2017-11-21T23:22:14.897Z,2.30
2017-11-21T23:24:41.529Z,2.53
2017-11-21T23:27:08.176Z,2.40
2017-11-21T23:29:34.850Z,2.87
2017-11-21T23:32:01.519Z,2.83
2017-11-21T23:34:28.161Z,2.80
2017-11-21T23:36:54.793Z,2.77
2017-11-21T23:39:21.484Z,2.70
2017-11-21T23:41:48.727Z,2.80
2017-11-21T23:44:15.753Z,2.63
2017-11-21T23:46:42.389Z,3.10
2017-11-21T23:49:09.043Z,2.80
2017-11-21T23:51:35.677Z,2.93
2017-11-21T23:54:02.370Z,2.50
2017-11-21T23:56:29.005Z,2.97
2017-11-21T23:58:55.681Z,2.47
